createdAt,value
2024-01-16T00:00:00.603Z,1.50
2024-01-16T00:01:00.725Z,1.10
2024-01-16T00:02:00.665Z,1.20
2024-01-16T00:03:00.827Z,1.50
2024-01-16T00:04:00.680Z,1.40
2024-01-16T00:05:00.574Z,1.20
2024-01-16T00:06:00.580Z,1.40
2024-01-16T00:07:00.576Z,1.20
2024-01-16T00:08:00.569Z,0.90
2024-01-16T00:09:00.762Z,1.20
2024-01-16T00:10:00.514Z,1.30
2024-01-16T00:11:00.444Z,1.60
2024-01-16T00:12:00.429Z,1.10
2024-01-16T00:13:00.403Z,1.00
2024-01-16T00:14:00.482Z,1.00
2024-01-16T00:15:00.462Z,1.20
2024-01-16T00:16:00.427Z,1.20
2024-01-16T00:17:00.469Z,1.30
2024-01-16T00:18:01.909Z,1.20
2024-01-16T00:19:00.400Z,1.40
2024-01-16T00:20:00.320Z,1.40
2024-01-16T00:21:00.370Z,1.10
2024-01-16T00:22:00.325Z,1.30
2024-01-16T00:23:00.336Z,1.20
2024-01-16T00:24:00.302Z,1.30
2024-01-16T00:25:00.393Z,1.20
2024-01-16T00:26:00.296Z,1.40
2024-01-16T00:27:00.260Z,1.20
2024-01-16T00:28:00.235Z,1.30
2024-01-16T00:29:00.251Z,1.30
2024-01-16T00:30:00.334Z,1.10
2024-01-16T00:31:00.209Z,1.00
2024-01-16T00:32:00.252Z,1.60
2024-01-16T00:33:00.271Z,1.30
2024-01-16T00:34:00.277Z,1.00
2024-01-16T00:35:00.238Z,1.10
2024-01-16T00:36:00.174Z,1.20
2024-01-16T00:37:00.149Z,1.10
2024-01-16T00:38:00.373Z,1.10
2024-01-16T00:39:00.165Z,1.20
2024-01-16T00:40:00.165Z,1.20
2024-01-16T00:41:00.110Z,1.40
2024-01-16T00:42:00.085Z,1.10
2024-01-16T00:43:00.080Z,1.30
2024-01-16T00:44:00.269Z,1.50
2024-01-16T00:45:00.116Z,1.20
2024-01-16T00:46:00.065Z,1.20
2024-01-16T00:47:00.207Z,1.50
2024-01-16T00:48:00.150Z,1.20
2024-01-16T00:49:00.340Z,1.50
2024-01-16T00:50:00.102Z,1.20
2024-01-16T00:50:59.984Z,1.40
2024-01-16T00:52:00.037Z,1.60
2024-01-16T00:52:59.985Z,1.60
2024-01-16T00:53:59.952Z,1.10
2024-01-16T00:54:59.974Z,1.20
2024-01-16T00:55:59.921Z,1.50
2024-01-16T00:56:59.907Z,1.30
2024-01-16T00:57:59.899Z,1.30
2024-01-16T00:58:59.898Z,1.20
2024-01-16T00:59:59.966Z,1.30
2024-01-16T01:00:59.964Z,1.20
2024-01-16T01:01:59.851Z,1.30
2024-01-16T01:02:59.971Z,1.60
2024-01-16T01:04:00.013Z,0.90
2024-01-16T01:04:59.887Z,1.10
2024-01-16T01:05:59.892Z,1.40
2024-01-16T01:06:59.881Z,1.20
2024-01-16T01:07:59.791Z,1.30
2024-01-16T01:08:59.780Z,1.10
2024-01-16T01:09:59.778Z,1.40
2024-01-16T01:10:59.806Z,1.40
2024-01-16T01:11:59.748Z,1.20
2024-01-16T01:12:59.868Z,1.10
2024-01-16T01:14:00.194Z,1.80
2024-01-16T01:14:59.836Z,1.20
2024-01-16T01:15:59.735Z,1.40
2024-01-16T01:16:59.751Z,1.40
2024-01-16T01:18:00.032Z,1.50
2024-01-16T01:19:00.009Z,1.50
2024-01-16T01:19:59.716Z,1.30
2024-01-16T01:20:59.761Z,1.60
2024-01-16T01:21:59.730Z,1.50
2024-01-16T01:22:59.684Z,1.30
2024-01-16T01:23:59.740Z,1.50
2024-01-16T01:25:00.115Z,1.50
2024-01-16T01:25:59.670Z,1.40
2024-01-16T01:26:59.654Z,1.40
2024-01-16T01:27:59.650Z,1.60
2024-01-16T01:28:59.613Z,1.30
2024-01-16T01:29:59.671Z,1.50
2024-01-16T01:31:00.039Z,1.20
2024-01-16T01:31:59.594Z,1.60
2024-01-16T01:32:59.790Z,1.20
2024-01-16T01:33:59.689Z,1.50
2024-01-16T01:34:59.561Z,1.20
2024-01-16T01:35:59.494Z,1.60
2024-01-16T01:36:59.543Z,1.30
2024-01-16T01:37:59.543Z,1.70
2024-01-16T01:38:59.573Z,1.20
2024-01-16T01:39:59.524Z,1.50
2024-01-16T01:40:59.501Z,1.50
2024-01-16T01:41:59.547Z,1.80
2024-01-16T01:42:59.461Z,1.60
2024-01-16T01:43:59.489Z,1.50
2024-01-16T01:44:59.457Z,1.40
2024-01-16T01:45:59.431Z,1.60
2024-01-16T01:46:59.392Z,1.40
2024-01-16T01:47:59.621Z,1.30
2024-01-16T01:48:59.466Z,1.90
2024-01-16T01:49:59.365Z,1.90
2024-01-16T01:50:59.429Z,1.40
2024-01-16T01:51:59.374Z,1.90
2024-01-16T01:52:59.330Z,1.60
2024-01-16T01:53:59.652Z,1.60
2024-01-16T01:54:59.327Z,1.60
2024-01-16T01:55:59.347Z,1.10
2024-01-16T01:56:59.273Z,1.90
2024-01-16T01:57:59.262Z,1.60
2024-01-16T01:58:59.360Z,1.60
2024-01-16T01:59:59.294Z,1.30
2024-01-16T02:00:59.271Z,1.60
2024-01-16T02:01:59.232Z,1.70
2024-01-16T02:02:59.262Z,1.60
2024-01-16T02:03:59.210Z,1.40
2024-01-16T02:04:59.289Z,1.40
2024-01-16T02:05:59.360Z,1.40
2024-01-16T02:06:59.140Z,1.30
2024-01-16T02:07:59.166Z,1.70
2024-01-16T02:08:59.121Z,1.40
2024-01-16T02:09:59.182Z,1.90
2024-01-16T02:10:59.167Z,1.50
2024-01-16T02:11:59.126Z,1.60
2024-01-16T02:12:59.139Z,1.50
2024-01-16T02:13:59.165Z,1.50
2024-01-16T02:14:59.089Z,1.70
2024-01-16T02:15:59.114Z,1.60
2024-01-16T02:16:59.059Z,1.50
2024-01-16T02:17:59.139Z,1.90
2024-01-16T02:18:59.076Z,1.50
2024-01-16T02:19:59.059Z,1.50
2024-01-16T02:20:59.006Z,1.80
2024-01-16T02:21:59.056Z,2.30
2024-01-16T02:22:59.020Z,1.80
2024-01-16T02:23:59.033Z,1.50
2024-01-16T02:24:59.033Z,2.00
2024-01-16T02:25:59.044Z,1.80
2024-01-16T02:26:58.982Z,1.30
2024-01-16T02:27:58.982Z,1.70
2024-01-16T02:28:58.949Z,1.80
2024-01-16T02:29:58.903Z,1.60
2024-01-16T02:30:58.921Z,1.80
2024-01-16T02:31:58.893Z,1.60
2024-01-16T02:32:58.988Z,2.00
2024-01-16T02:33:58.941Z,1.40
2024-01-16T02:34:58.893Z,1.90
2024-01-16T02:35:58.907Z,1.70
2024-01-16T02:36:58.894Z,1.70
2024-01-16T02:37:58.937Z,1.80
2024-01-16T02:38:58.865Z,1.50
2024-01-16T02:39:58.778Z,1.60
2024-01-16T02:40:58.876Z,1.90
2024-01-16T02:41:58.843Z,1.50
2024-01-16T02:42:58.895Z,2.00
2024-01-16T02:43:58.907Z,1.80
2024-01-16T02:44:58.883Z,1.60
2024-01-16T02:45:58.796Z,1.90
2024-01-16T02:46:58.704Z,1.50
2024-01-16T02:47:58.849Z,1.90
2024-01-16T02:48:58.825Z,1.70
2024-01-16T02:49:58.739Z,1.90
2024-01-16T02:50:58.714Z,1.70
2024-01-16T02:51:58.703Z,1.90
2024-01-16T02:52:58.870Z,1.50
2024-01-16T02:53:58.658Z,1.90
2024-01-16T02:54:58.645Z,1.40
2024-01-16T02:55:58.684Z,1.60
2024-01-16T02:56:58.630Z,1.90
2024-01-16T02:57:58.705Z,1.80
2024-01-16T02:58:58.627Z,1.50
2024-01-16T02:59:58.641Z,2.10
2024-01-16T03:00:58.546Z,1.90
2024-01-16T03:02:00.002Z,1.90
2024-01-16T03:02:58.640Z,1.80
2024-01-16T03:03:58.585Z,1.70
2024-01-16T03:04:58.673Z,1.80
2024-01-16T03:05:59.483Z,1.90
2024-01-16T03:06:58.568Z,1.90
2024-01-16T03:07:58.485Z,1.70
2024-01-16T03:08:58.595Z,1.50
2024-01-16T03:09:58.526Z,2.00
2024-01-16T03:10:58.490Z,1.80
2024-01-16T03:11:58.517Z,2.00
2024-01-16T03:12:58.473Z,1.60
2024-01-16T03:13:58.404Z,1.70
2024-01-16T03:14:58.524Z,1.60
2024-01-16T03:15:58.475Z,1.90
2024-01-16T03:16:58.436Z,1.80
2024-01-16T03:17:58.454Z,1.90
2024-01-16T03:18:58.477Z,1.60
2024-01-16T03:19:58.392Z,2.10
2024-01-16T03:20:58.423Z,1.80
2024-01-16T03:21:58.353Z,1.90
2024-01-16T03:22:58.321Z,1.80
2024-01-16T03:23:58.383Z,1.90
2024-01-16T03:24:58.280Z,2.30
2024-01-16T03:25:58.384Z,2.20
2024-01-16T03:26:58.298Z,1.80
2024-01-16T03:27:58.286Z,2.10
2024-01-16T03:28:58.265Z,2.00
2024-01-16T03:29:58.313Z,2.20
2024-01-16T03:30:58.327Z,2.00
2024-01-16T03:31:58.225Z,2.40
2024-01-16T03:32:58.337Z,2.20
2024-01-16T03:33:58.316Z,2.20
2024-01-16T03:34:58.130Z,2.30
2024-01-16T03:35:58.191Z,1.90
2024-01-16T03:36:58.169Z,2.00
2024-01-16T03:37:58.208Z,2.10
2024-01-16T03:38:58.133Z,2.00
2024-01-16T03:39:58.157Z,2.40
2024-01-16T03:40:58.153Z,1.90
2024-01-16T03:41:58.132Z,2.20
2024-01-16T03:42:58.071Z,2.30
2024-01-16T03:43:58.121Z,2.30
2024-01-16T03:44:58.161Z,2.20
2024-01-16T03:45:58.078Z,2.00
2024-01-16T03:46:58.037Z,2.40
2024-01-16T03:47:58.236Z,2.30
2024-01-16T03:48:58.085Z,2.50
2024-01-16T03:49:58.034Z,2.00
2024-01-16T03:50:58.174Z,2.50
2024-01-16T03:51:58.039Z,2.30
2024-01-16T03:52:57.963Z,2.30
2024-01-16T03:53:57.914Z,2.10
2024-01-16T03:54:57.890Z,2.40
2024-01-16T03:55:57.952Z,2.40
2024-01-16T03:56:57.878Z,2.60
2024-01-16T03:57:57.891Z,2.00
2024-01-16T03:58:57.872Z,2.40
2024-01-16T03:59:57.854Z,2.20
2024-01-16T04:00:57.899Z,2.40
2024-01-16T04:01:57.874Z,2.10
2024-01-16T04:02:57.931Z,2.40
2024-01-16T04:03:57.861Z,2.60
2024-01-16T04:04:57.803Z,2.20
2024-01-16T04:05:57.949Z,2.00
2024-01-16T04:06:57.758Z,2.60
2024-01-16T04:07:57.933Z,2.30
2024-01-16T04:08:57.742Z,2.30
2024-01-16T04:09:57.732Z,2.10
2024-01-16T04:10:57.764Z,2.20
2024-01-16T04:11:57.743Z,2.70
2024-01-16T04:12:57.691Z,2.20
2024-01-16T04:13:57.807Z,2.10
2024-01-16T04:14:57.678Z,2.90
2024-01-16T04:15:57.665Z,2.20
2024-01-16T04:16:57.677Z,1.90
2024-01-16T04:17:57.841Z,2.10
2024-01-16T04:18:57.719Z,2.50
2024-01-16T04:19:57.682Z,2.40
2024-01-16T04:20:57.674Z,2.20
2024-01-16T04:21:57.609Z,2.30
2024-01-16T04:22:57.597Z,2.20
2024-01-16T04:23:57.585Z,2.20
2024-01-16T04:24:57.670Z,2.40
2024-01-16T04:25:57.685Z,1.90
2024-01-16T04:26:57.773Z,2.40
2024-01-16T04:27:58.917Z,2.20
2024-01-16T04:28:57.537Z,4.90
2024-01-16T04:29:57.493Z,2.20
2024-01-16T04:30:57.626Z,2.70
2024-01-16T04:31:57.493Z,3.80
2024-01-16T04:32:57.627Z,2.00
2024-01-16T04:33:57.548Z,2.50
2024-01-16T04:34:57.456Z,2.40
2024-01-16T04:35:57.511Z,2.60
2024-01-16T04:36:57.476Z,2.30
2024-01-16T04:37:57.425Z,2.40
2024-01-16T04:38:59.999Z,3.60
2024-01-16T04:39:57.406Z,2.40
2024-01-16T04:40:57.411Z,2.60
2024-01-16T04:41:57.360Z,2.00
2024-01-16T04:42:57.587Z,2.00
2024-01-16T04:43:57.365Z,1.80
2024-01-16T04:44:57.344Z,2.10
2024-01-16T04:45:58.658Z,2.00
2024-01-16T04:46:57.306Z,2.30
2024-01-16T04:47:57.401Z,2.40
2024-01-16T04:48:57.474Z,2.00
2024-01-16T04:49:57.308Z,2.10
2024-01-16T04:50:57.351Z,2.60
2024-01-16T04:51:57.295Z,2.20
2024-01-16T04:52:57.241Z,2.20
2024-01-16T04:53:57.263Z,2.10
2024-01-16T04:54:57.287Z,2.30
2024-01-16T04:55:57.246Z,3.90
2024-01-16T04:56:57.209Z,2.40
2024-01-16T04:57:57.220Z,2.10
2024-01-16T04:58:57.168Z,1.90
2024-01-16T04:59:57.222Z,2.00
2024-01-16T05:00:57.223Z,2.30
2024-01-16T05:01:57.159Z,1.90
2024-01-16T05:02:57.189Z,2.20
2024-01-16T05:03:57.246Z,2.00
2024-01-16T05:04:57.178Z,2.10
2024-01-16T05:05:57.222Z,2.10
2024-01-16T05:06:57.083Z,1.60
2024-01-16T05:07:57.109Z,2.30
2024-01-16T05:08:57.090Z,1.80
2024-01-16T05:09:57.064Z,2.40
2024-01-16T05:10:57.033Z,2.40
2024-01-16T05:11:57.082Z,2.10
2024-01-16T05:12:57.024Z,1.90
2024-01-16T05:13:57.001Z,1.80
2024-01-16T05:14:57.015Z,2.00
2024-01-16T05:15:57.010Z,1.80
2024-01-16T05:16:56.970Z,1.70
2024-01-16T05:17:57.070Z,1.90
2024-01-16T05:18:57.021Z,2.00
2024-01-16T05:19:56.943Z,2.10
2024-01-16T05:20:57.586Z,2.10
2024-01-16T05:21:56.928Z,1.80
2024-01-16T05:22:56.908Z,2.30
2024-01-16T05:23:56.930Z,2.00
2024-01-16T05:24:56.995Z,1.70
2024-01-16T05:25:56.957Z,2.20
2024-01-16T05:26:56.909Z,1.80
2024-01-16T05:27:56.867Z,1.60
2024-01-16T05:28:56.883Z,1.60
2024-01-16T05:29:56.983Z,2.20
2024-01-16T05:30:56.970Z,2.00
2024-01-16T05:31:56.899Z,2.50
2024-01-16T05:32:56.897Z,1.60
2024-01-16T05:33:56.898Z,1.80
2024-01-16T05:34:56.762Z,2.20
2024-01-16T05:35:56.826Z,2.00
2024-01-16T05:36:56.803Z,1.90
2024-01-16T05:37:56.780Z,1.70
2024-01-16T05:38:56.931Z,2.20
2024-01-16T05:39:56.812Z,2.20
2024-01-16T05:40:56.802Z,2.20
2024-01-16T05:41:57.641Z,2.00
2024-01-16T05:42:56.759Z,2.10
2024-01-16T05:43:56.917Z,1.80
2024-01-16T05:44:56.914Z,2.00
2024-01-16T05:45:56.712Z,2.50
2024-01-16T05:46:56.679Z,2.20
2024-01-16T05:47:56.789Z,2.00
2024-01-16T05:48:56.706Z,2.50
2024-01-16T05:49:56.793Z,2.00
2024-01-16T05:50:56.668Z,2.20
2024-01-16T05:51:56.622Z,2.30
2024-01-16T05:52:56.745Z,2.00
2024-01-16T05:53:56.632Z,2.00
2024-01-16T05:54:56.621Z,2.30
2024-01-16T05:55:56.614Z,1.70
2024-01-16T05:56:56.680Z,1.90
2024-01-16T05:57:56.613Z,2.00
2024-01-16T05:58:56.660Z,1.70
2024-01-16T05:59:56.566Z,2.00
2024-01-16T06:00:56.567Z,2.20
2024-01-16T06:01:56.609Z,2.00
2024-01-16T06:02:56.554Z,2.20
2024-01-16T06:03:56.521Z,2.10
2024-01-16T06:04:56.569Z,1.90
2024-01-16T06:05:56.747Z,2.00
2024-01-16T06:06:56.478Z,2.30
2024-01-16T06:07:56.460Z,2.40
2024-01-16T06:08:57.275Z,2.10
2024-01-16T06:09:56.408Z,2.20
2024-01-16T06:10:56.537Z,2.50
2024-01-16T06:11:56.497Z,2.20
2024-01-16T06:12:56.399Z,2.20
2024-01-16T06:13:56.385Z,2.20
2024-01-16T06:14:56.448Z,2.50
2024-01-16T06:15:56.345Z,2.30
2024-01-16T06:16:56.348Z,2.10
2024-01-16T06:17:56.515Z,2.10
2024-01-16T06:18:56.379Z,2.30
2024-01-16T06:19:56.392Z,2.30
2024-01-16T06:20:56.440Z,2.10
2024-01-16T06:21:56.268Z,2.30
2024-01-16T06:22:56.255Z,2.00
2024-01-16T06:23:56.404Z,2.00
2024-01-16T06:24:56.257Z,2.30
2024-01-16T06:25:56.298Z,2.10
2024-01-16T06:26:56.281Z,2.20
2024-01-16T06:27:56.274Z,2.10
2024-01-16T06:28:56.266Z,2.00
2024-01-16T06:29:56.448Z,2.20
2024-01-16T06:30:56.408Z,2.20
2024-01-16T06:31:56.271Z,2.50
2024-01-16T06:32:56.349Z,2.20
2024-01-16T06:33:56.402Z,2.00
2024-01-16T06:34:56.221Z,2.10
2024-01-16T06:35:56.294Z,2.20
2024-01-16T06:36:56.255Z,2.20
2024-01-16T06:37:56.151Z,2.30
2024-01-16T06:38:56.279Z,2.20
2024-01-16T06:39:56.243Z,2.00
2024-01-16T06:40:56.084Z,2.20
2024-01-16T06:41:56.095Z,2.10
2024-01-16T06:42:56.053Z,2.10
2024-01-16T06:43:56.117Z,2.20
2024-01-16T06:44:56.110Z,2.40
2024-01-16T06:45:56.151Z,2.00
2024-01-16T06:46:56.064Z,2.70
2024-01-16T06:47:56.214Z,2.70
2024-01-16T06:48:56.083Z,2.70
2024-01-16T06:49:55.941Z,1.90
2024-01-16T06:50:56.065Z,2.80
2024-01-16T06:51:56.066Z,3.30
2024-01-16T06:52:55.959Z,3.90
2024-01-16T06:53:55.997Z,2.90
2024-01-16T06:54:55.937Z,2.50
2024-01-16T06:55:55.911Z,3.10
2024-01-16T06:56:55.996Z,2.70
2024-01-16T06:57:55.928Z,2.50
2024-01-16T06:58:55.919Z,2.80
2024-01-16T06:59:56.112Z,2.70
2024-01-16T07:00:55.901Z,2.80
2024-01-16T07:01:55.847Z,2.40
2024-01-16T07:02:55.947Z,2.40
2024-01-16T07:03:55.910Z,2.20
2024-01-16T07:04:57.633Z,2.50
2024-01-16T07:05:55.917Z,2.60
2024-01-16T07:06:55.849Z,2.70
2024-01-16T07:07:55.823Z,2.80
2024-01-16T07:08:56.698Z,2.10
2024-01-16T07:09:55.809Z,2.50
2024-01-16T07:10:55.827Z,2.50
2024-01-16T07:11:55.867Z,3.10
2024-01-16T07:12:55.766Z,2.40
2024-01-16T07:13:55.718Z,2.70
2024-01-16T07:14:55.731Z,2.70
2024-01-16T07:15:55.662Z,3.00
2024-01-16T07:16:55.644Z,2.70
2024-01-16T07:17:55.810Z,2.60
2024-01-16T07:18:55.739Z,2.50
2024-01-16T07:19:55.768Z,2.50
2024-01-16T07:20:55.874Z,2.40
2024-01-16T07:21:55.581Z,2.10
2024-01-16T07:22:55.650Z,2.50
2024-01-16T07:23:55.617Z,2.40
2024-01-16T07:24:55.616Z,2.70
2024-01-16T07:25:55.543Z,2.30
2024-01-16T07:26:55.682Z,2.20
2024-01-16T07:27:55.551Z,2.60
2024-01-16T07:28:55.527Z,2.90
2024-01-16T07:29:55.597Z,2.30
2024-01-16T07:30:55.609Z,2.40
2024-01-16T07:31:55.521Z,2.20
2024-01-16T07:32:55.714Z,2.50
2024-01-16T07:33:55.641Z,2.40
2024-01-16T07:34:55.528Z,2.50
2024-01-16T07:35:55.476Z,2.00
2024-01-16T07:36:55.434Z,2.20
2024-01-16T07:37:55.520Z,2.40
2024-01-16T07:38:55.506Z,2.10
2024-01-16T07:39:55.388Z,2.00
2024-01-16T07:40:55.376Z,2.00
2024-01-16T07:41:55.435Z,2.60
2024-01-16T07:42:55.374Z,2.50
2024-01-16T07:43:55.365Z,2.30
2024-01-16T07:44:55.418Z,2.00
2024-01-16T07:45:55.345Z,2.30
2024-01-16T07:46:55.296Z,2.40
2024-01-16T07:47:55.393Z,2.20
2024-01-16T07:48:55.411Z,1.80
2024-01-16T07:49:55.351Z,2.60
2024-01-16T07:50:55.414Z,2.40
2024-01-16T07:51:55.297Z,2.80
2024-01-16T07:52:55.268Z,2.20
2024-01-16T07:53:55.294Z,2.30
2024-01-16T07:54:55.244Z,2.60
2024-01-16T07:55:55.290Z,2.40
2024-01-16T07:56:55.277Z,2.40
2024-01-16T07:57:55.306Z,2.30
2024-01-16T07:58:55.191Z,2.80
2024-01-16T07:59:55.291Z,2.40
2024-01-16T08:00:55.212Z,2.70
2024-01-16T08:01:55.177Z,2.70
2024-01-16T08:02:55.261Z,2.60
2024-01-16T08:03:55.193Z,2.60
2024-01-16T08:04:55.096Z,2.80
2024-01-16T08:05:55.196Z,2.60
2024-01-16T08:06:56.061Z,2.80
2024-01-16T08:07:55.124Z,2.60
2024-01-16T08:08:55.131Z,2.90
2024-01-16T08:09:55.224Z,3.00
2024-01-16T08:10:55.110Z,3.30
2024-01-16T08:11:55.100Z,2.60
2024-01-16T08:12:55.089Z,2.70
2024-01-16T08:13:54.979Z,3.20
2024-01-16T08:14:55.093Z,3.10
2024-01-16T08:15:55.050Z,2.70
2024-01-16T08:16:54.968Z,2.90
2024-01-16T08:17:55.183Z,2.90
2024-01-16T08:18:55.121Z,3.10
2024-01-16T08:19:54.995Z,2.90
2024-01-16T08:20:55.031Z,2.70
2024-01-16T08:21:54.972Z,3.20
2024-01-16T08:22:55.044Z,3.30
2024-01-16T08:23:55.072Z,3.60
2024-01-16T08:24:55.083Z,2.80
2024-01-16T08:25:54.916Z,3.30
2024-01-16T08:26:54.927Z,3.30
2024-01-16T08:27:54.966Z,2.50
2024-01-16T08:28:54.904Z,2.70
2024-01-16T08:29:54.976Z,3.30
2024-01-16T08:30:54.972Z,2.90
2024-01-16T08:31:55.103Z,3.00
2024-01-16T08:32:54.895Z,2.60
2024-01-16T08:33:55.073Z,3.10
2024-01-16T08:34:54.919Z,2.70
2024-01-16T08:35:54.867Z,3.10
2024-01-16T08:36:54.865Z,3.00
2024-01-16T08:37:54.795Z,2.60
2024-01-16T08:38:54.833Z,3.50
2024-01-16T08:39:54.794Z,3.20
2024-01-16T08:40:54.731Z,2.50
2024-01-16T08:41:54.836Z,3.20
2024-01-16T08:42:57.744Z,2.90
2024-01-16T08:43:54.679Z,3.00
2024-01-16T08:44:54.735Z,3.00
2024-01-16T08:45:54.766Z,2.60
2024-01-16T08:46:54.684Z,3.50
2024-01-16T08:47:54.853Z,2.90
2024-01-16T08:48:54.777Z,3.10
2024-01-16T08:49:54.668Z,3.30
2024-01-16T08:50:54.718Z,2.70
2024-01-16T08:51:54.765Z,3.20
2024-01-16T08:52:54.605Z,3.30
2024-01-16T08:53:54.778Z,2.70
2024-01-16T08:54:54.610Z,2.70
2024-01-16T08:55:54.600Z,3.00
2024-01-16T08:56:54.644Z,3.00
2024-01-16T08:57:54.540Z,3.10
2024-01-16T08:58:54.600Z,3.00
2024-01-16T08:59:54.750Z,3.20
2024-01-16T09:00:54.565Z,3.30
2024-01-16T09:01:54.862Z,3.10
2024-01-16T09:02:54.569Z,2.90
2024-01-16T09:03:54.581Z,3.40
2024-01-16T09:04:54.565Z,3.20
2024-01-16T09:05:54.696Z,3.50
2024-01-16T09:06:54.558Z,2.80
2024-01-16T09:07:54.393Z,3.20
2024-01-16T09:08:54.441Z,2.60
2024-01-16T09:09:54.401Z,3.30
2024-01-16T09:10:54.371Z,3.40
2024-01-16T09:11:54.359Z,3.50
2024-01-16T09:12:54.427Z,2.90
2024-01-16T09:13:54.311Z,3.00
2024-01-16T09:14:54.400Z,3.20
2024-01-16T09:15:54.330Z,2.80
2024-01-16T09:16:54.311Z,3.20
2024-01-16T09:17:54.397Z,2.90
2024-01-16T09:18:54.413Z,2.80
2024-01-16T09:19:54.283Z,3.00
2024-01-16T09:20:54.334Z,3.30
2024-01-16T09:21:54.277Z,3.10
2024-01-16T09:22:54.273Z,3.60
2024-01-16T09:23:54.389Z,3.30
2024-01-16T09:24:54.208Z,3.20
2024-01-16T09:25:54.220Z,3.00
2024-01-16T09:26:54.300Z,3.10
2024-01-16T09:27:54.184Z,3.60
2024-01-16T09:28:54.210Z,3.40
2024-01-16T09:29:54.191Z,3.30
2024-01-16T09:30:54.157Z,3.70
2024-01-16T09:31:54.112Z,3.50
2024-01-16T09:32:54.197Z,3.20
2024-01-16T09:33:54.272Z,3.40
2024-01-16T09:34:54.164Z,3.30
2024-01-16T09:35:54.250Z,3.20
2024-01-16T09:36:54.072Z,2.90
2024-01-16T09:37:54.045Z,3.50
2024-01-16T09:38:54.125Z,3.50
2024-01-16T09:39:54.083Z,3.20
2024-01-16T09:40:54.079Z,3.00
2024-01-16T09:41:54.044Z,3.80
2024-01-16T09:42:54.005Z,3.50
2024-01-16T09:43:53.972Z,3.40
2024-01-16T09:44:54.082Z,3.30
2024-01-16T09:45:53.967Z,2.80
2024-01-16T09:46:54.002Z,3.20
2024-01-16T09:47:54.868Z,3.70
2024-01-16T09:48:54.031Z,3.30
2024-01-16T09:49:53.900Z,3.20
2024-01-16T09:50:54.068Z,3.90
2024-01-16T09:51:54.044Z,4.40
2024-01-16T09:52:55.079Z,3.70
2024-01-16T09:53:54.060Z,3.60
2024-01-16T09:54:53.927Z,3.70
2024-01-16T09:55:53.923Z,3.40
2024-01-16T09:56:53.996Z,4.50
2024-01-16T09:57:53.878Z,3.90
2024-01-16T09:58:53.849Z,3.30
2024-01-16T09:59:53.989Z,3.30
2024-01-16T10:00:53.937Z,3.60
2024-01-16T10:01:53.830Z,3.80
2024-01-16T10:02:53.901Z,3.50
2024-01-16T10:03:54.198Z,3.70
2024-01-16T10:04:53.802Z,3.70
2024-01-16T10:05:53.880Z,3.50
2024-01-16T10:06:53.886Z,3.80
2024-01-16T10:07:53.779Z,3.40
2024-01-16T10:08:53.842Z,3.40
2024-01-16T10:09:53.775Z,3.60
2024-01-16T10:10:53.796Z,3.20
2024-01-16T10:11:53.926Z,3.10
2024-01-16T10:12:53.766Z,3.80
2024-01-16T10:13:53.702Z,3.50
2024-01-16T10:14:53.783Z,3.70
2024-01-16T10:15:53.802Z,3.50
2024-01-16T10:16:53.634Z,3.10
2024-01-16T10:17:53.786Z,2.80
2024-01-16T10:18:53.746Z,3.40
2024-01-16T10:19:53.724Z,3.60
2024-01-16T10:20:53.711Z,3.30
2024-01-16T10:21:53.625Z,3.50
2024-01-16T10:22:53.618Z,3.50
2024-01-16T10:23:53.750Z,3.50
2024-01-16T10:24:53.558Z,3.20
2024-01-16T10:25:53.546Z,3.40
2024-01-16T10:26:53.680Z,3.20
2024-01-16T10:27:53.498Z,2.90
2024-01-16T10:28:53.568Z,3.10
2024-01-16T10:29:53.736Z,3.60
2024-01-16T10:30:53.630Z,3.10
2024-01-16T10:31:53.646Z,3.30
2024-01-16T10:32:53.568Z,3.40
2024-01-16T10:33:53.595Z,3.20
2024-01-16T10:34:53.462Z,3.60
2024-01-16T10:35:53.417Z,3.10
2024-01-16T10:36:53.386Z,2.80
2024-01-16T10:37:53.417Z,3.30
2024-01-16T10:38:53.444Z,3.50
2024-01-16T10:39:53.342Z,3.30
2024-01-16T10:40:53.380Z,3.50
2024-01-16T10:41:53.367Z,3.00
2024-01-16T10:42:53.307Z,3.10
2024-01-16T10:43:53.362Z,3.50
2024-01-16T10:44:53.298Z,3.20
2024-01-16T10:45:53.359Z,3.40
2024-01-16T10:46:53.292Z,4.00
2024-01-16T10:47:53.339Z,3.80
2024-01-16T10:48:53.256Z,3.80
2024-01-16T10:49:53.596Z,3.60
2024-01-16T10:50:53.313Z,3.70
2024-01-16T10:51:53.229Z,3.30
2024-01-16T10:52:53.208Z,3.80
2024-01-16T10:53:53.285Z,3.80
2024-01-16T10:54:53.198Z,3.70
2024-01-16T10:55:53.340Z,3.60
2024-01-16T10:56:53.187Z,3.70
2024-01-16T10:57:53.146Z,3.80
2024-01-16T10:58:53.120Z,4.00
2024-01-16T10:59:53.154Z,3.20
2024-01-16T11:00:53.180Z,3.70
2024-01-16T11:01:53.145Z,3.70
2024-01-16T11:02:53.459Z,4.00
2024-01-16T11:03:53.524Z,3.40
2024-01-16T11:04:53.191Z,3.70
2024-01-16T11:05:53.207Z,3.50
2024-01-16T11:06:53.321Z,3.80
2024-01-16T11:07:53.148Z,4.00
2024-01-16T11:08:53.222Z,3.50
2024-01-16T11:09:53.080Z,3.30
2024-01-16T11:10:53.059Z,2.80
2024-01-16T11:11:53.115Z,2.70
2024-01-16T11:12:53.009Z,2.80
2024-01-16T11:13:53.023Z,3.10
2024-01-16T11:14:53.137Z,3.50
2024-01-16T11:15:52.933Z,4.00
2024-01-16T11:16:52.942Z,4.10
2024-01-16T11:17:52.997Z,4.20
2024-01-16T11:18:52.997Z,4.40
2024-01-16T11:20:07.351Z,4.00
2024-01-16T11:21:04.575Z,3.90
2024-01-16T11:21:53.973Z,4.00
2024-01-16T11:22:52.916Z,3.80
2024-01-16T11:23:53.074Z,3.50
2024-01-16T11:24:52.845Z,3.80
2024-01-16T11:25:52.859Z,3.60
2024-01-16T11:26:52.879Z,4.30
2024-01-16T11:27:52.796Z,3.50
2024-01-16T11:28:52.776Z,4.00
2024-01-16T11:29:52.886Z,3.90
2024-01-16T11:30:52.893Z,4.40
2024-01-16T11:32:01.121Z,4.50
2024-01-16T11:32:54.104Z,3.70
2024-01-16T11:33:52.833Z,3.60
2024-01-16T11:34:52.825Z,3.80
2024-01-16T11:35:52.784Z,4.50
2024-01-16T11:36:52.814Z,4.20
2024-01-16T11:37:52.687Z,4.00
2024-01-16T11:38:52.763Z,4.00
2024-01-16T11:39:52.693Z,3.60
2024-01-16T11:40:52.750Z,3.80
2024-01-16T11:41:52.906Z,3.50
2024-01-16T11:42:52.712Z,4.00
2024-01-16T11:43:52.658Z,3.50
2024-01-16T11:44:52.689Z,3.90
2024-01-16T11:45:53.475Z,3.50
2024-01-16T11:46:52.583Z,3.70
2024-01-16T11:47:52.644Z,3.50
2024-01-16T11:48:52.694Z,3.40
2024-01-16T11:49:52.598Z,3.20
2024-01-16T11:50:52.616Z,3.50
2024-01-16T11:51:52.582Z,3.40
2024-01-16T11:52:52.537Z,3.80
2024-01-16T11:53:52.558Z,3.50
2024-01-16T11:54:52.499Z,3.40
2024-01-16T11:55:52.715Z,3.40
2024-01-16T11:56:52.650Z,3.50
2024-01-16T11:57:52.467Z,3.70
2024-01-16T11:58:52.452Z,3.50
2024-01-16T11:59:52.479Z,3.40
2024-01-16T12:00:52.536Z,3.50
2024-01-16T12:01:52.468Z,3.60
2024-01-16T12:02:52.665Z,3.20
2024-01-16T12:03:52.400Z,3.80
2024-01-16T12:04:52.443Z,4.10
2024-01-16T12:05:52.601Z,4.70
2024-01-16T12:06:52.505Z,3.90
2024-01-16T12:07:52.500Z,2.70
2024-01-16T12:08:52.405Z,2.20
2024-01-16T12:09:52.422Z,1.80
2024-01-16T12:10:52.356Z,2.10
2024-01-16T12:11:52.399Z,2.30
2024-01-16T12:12:52.402Z,2.70
2024-01-16T12:13:52.322Z,2.40
2024-01-16T12:14:52.408Z,2.70
2024-01-16T12:15:52.318Z,3.00
2024-01-16T12:16:52.306Z,3.20
2024-01-16T12:17:52.423Z,1.70
2024-01-16T12:18:52.409Z,1.10
2024-01-16T12:19:52.329Z,1.10
2024-01-16T12:20:52.309Z,1.50
2024-01-16T12:21:52.235Z,1.40
2024-01-16T12:22:52.189Z,1.40
2024-01-16T12:24:00.181Z,1.30
2024-01-16T12:24:53.223Z,2.30
2024-01-16T12:26:01.888Z,2.30
2024-01-16T12:26:53.215Z,3.00
2024-01-16T12:27:52.115Z,3.30
2024-01-16T12:28:52.105Z,2.90
2024-01-16T12:29:52.196Z,3.70
2024-01-16T12:30:52.331Z,3.40
2024-01-16T12:31:52.200Z,4.00
2024-01-16T12:32:58.749Z,3.40
2024-01-16T12:34:01.462Z,3.90
2024-01-16T12:34:53.183Z,3.80
2024-01-16T12:35:52.172Z,3.20
2024-01-16T12:36:52.151Z,3.50
2024-01-16T12:37:52.090Z,2.50
2024-01-16T12:38:52.095Z,2.30
2024-01-16T12:39:52.046Z,2.10
2024-01-16T12:40:51.985Z,1.70
2024-01-16T12:41:52.036Z,1.70
2024-01-16T12:42:52.025Z,1.30
2024-01-16T12:44:00.640Z,1.40
2024-01-16T12:44:53.037Z,1.50
2024-01-16T12:45:51.973Z,1.10
2024-01-16T12:46:51.919Z,1.10
2024-01-16T12:47:54.471Z,0.90
2024-01-16T12:49:00.311Z,1.20
2024-01-16T12:49:52.953Z,0.90
2024-01-16T12:50:52.050Z,0.90
2024-01-16T12:51:51.901Z,0.80
2024-01-16T12:52:51.904Z,1.30
2024-01-16T12:53:51.958Z,2.10
2024-01-16T12:54:52.055Z,2.60
2024-01-16T12:55:51.873Z,1.40
2024-01-16T12:56:51.964Z,1.90
2024-01-16T12:57:51.853Z,1.10
2024-01-16T12:58:51.877Z,1.00
2024-01-16T12:59:52.073Z,1.10
2024-01-16T13:00:51.897Z,1.60
2024-01-16T13:01:51.848Z,1.20
2024-01-16T13:02:52.017Z,1.00
2024-01-16T13:03:51.864Z,1.10
2024-01-16T13:04:51.873Z,0.90
2024-01-16T13:05:51.956Z,1.50
2024-01-16T13:06:51.971Z,1.00
2024-01-16T13:07:51.830Z,1.20
2024-01-16T13:08:51.919Z,1.00
2024-01-16T13:09:51.705Z,1.30
2024-01-16T13:10:51.772Z,1.10
2024-01-16T13:11:51.827Z,1.20
2024-01-16T13:12:51.755Z,1.20
2024-01-16T13:13:51.773Z,1.60
2024-01-16T13:14:51.801Z,1.10
2024-01-16T13:15:51.745Z,0.90
2024-01-16T13:16:51.703Z,1.10
2024-01-16T13:17:51.733Z,1.00